Time;durP1;ratioP1;P1;durP2;ratioP2;P2;SDS_P1;SDS_P2;PMS_P1;PMS_P2;Temp;Humidity;BMP_temperature;BMP_pressure;BME280_temperature;BME280_humidity;BME280_pressure;Samples;Min_cycle;Max_cycle;Signal;HPM_P1;HPM_P2
2021/12/20 00:01:34;;;;;;;3.87;3.67;;;;;;;5.17;100.00;102241.91;4346303;32;20200;-69
2021/12/20 00:03:59;;;;;;;3.65;3.55;;;;;;;5.09;100.00;102244.59;4360273;32;20105;-70
2021/12/20 00:06:25;;;;;;;3.67;3.50;;;;;;;5.10;100.00;102248.91;4358486;32;20078;-70
2021/12/20 00:08:51;;;;;;;3.10;3.00;;;;;;;5.09;100.00;102244.59;4347910;32;20088;-73
2021/12/20 00:11:16;;;;;;;4.05;3.85;;;;;;;5.07;100.00;102243.72;4345440;32;20225;-73
2021/12/20 00:13:41;;;;;;;3.60;3.40;;;;;;;4.82;100.00;102190.06;4349460;32;20074;-72
2021/12/20 00:16:07;;;;;;;4.68;4.47;;;;;;;5.10;100.00;102232.44;4356437;32;20073;-72
2021/12/20 00:18:32;;;;;;;3.30;3.17;;;;;;;5.02;100.00;102218.59;4342721;32;20082;-73
2021/12/20 00:20:57;;;;;;;3.75;3.60;;;;;;;5.08;100.00;102234.19;4359660;32;20132;-72
2021/12/20 00:23:23;;;;;;;3.00;2.90;;;;;;;5.08;100.00;102240.25;4345834;32;20264;-72
2021/12/20 00:25:48;;;;;;;3.20;3.10;;;;;;;5.13;100.00;102235.91;4347802;32;20235;-72
2021/12/20 00:28:17;;;;;;;4.57;4.37;;;;;;;5.06;100.00;102231.56;4335467;32;20074;-73
2021/12/20 00:30:43;;;;;;;3.35;3.25;;;;;;;5.11;100.00;102234.16;4344588;32;20098;-71
2021/12/20 00:33:08;;;;;;;4.75;4.55;;;;;;;4.99;100.00;102209.03;4344719;32;20505;-70
2021/12/20 00:35:33;;;;;;;3.00;2.90;;;;;;;5.13;100.00;102229.81;4343262;32;20414;-73
2021/12/20 00:40:43;;;;;;;3.20;3.10;;;;;;;5.12;100.00;102226.34;4364286;32;20077;-69
2021/12/20 00:43:08;;;;;;;4.85;4.65;;;;;;;5.14;100.00;102224.59;4343025;32;20071;-70
2021/12/20 00:45:35;;;;;;;3.20;3.10;;;;;;;5.12;100.00;102231.53;4347820;32;20070;-69
2021/12/20 00:48:01;;;;;;;3.87;3.72;;;;;;;5.09;100.00;102221.16;4347652;32;20066;-70
2021/12/20 00:50:27;;;;;;;3.20;3.10;;;;;;;5.08;100.00;102222.03;4346692;32;20067;-70
2021/12/20 00:52:52;;;;;;;3.05;2.95;;;;;;;5.07;100.00;102215.09;4350537;32;20090;-69
2021/12/20 00:55:18;;;;;;;3.20;3.10;;;;;;;5.07;100.00;102219.41;4350400;32;20088;-69
2021/12/20 00:57:47;;;;;;;3.17;3.08;;;;;;;5.07;100.00;102225.53;4348602;32;20209;-69
2021/12/20 01:00:15;;;;;;;5.05;4.75;;;;;;;5.08;100.00;102226.37;4346196;32;20070;-69
2021/12/20 01:02:40;;;;;;;3.30;3.20;;;;;;;4.43;100.00;102111.34;4342218;32;20067;-69
2021/12/20 01:05:06;;;;;;;4.40;4.20;;;;;;;5.07;100.00;102232.44;4344742;32;20076;-69
2021/12/20 01:07:31;;;;;;;3.67;3.37;;;;;;;5.05;100.00;102219.47;4345465;32;20086;-69
2021/12/20 01:09:59;;;;;;;3.45;3.33;;;;;;;5.06;100.00;102220.31;4347336;32;20085;-70
2021/12/20 01:12:29;;;;;;;3.20;3.10;;;;;;;5.05;100.00;102222.06;4349886;32;20565;-70
2021/12/20 01:14:59;;;;;;;3.37;3.28;;;;;;;5.06;100.00;102215.97;4346428;32;20181;-69
2021/12/20 01:17:24;;;;;;;3.30;3.20;;;;;;;5.04;100.00;102220.31;4351346;32;20089;-70
2021/12/20 01:19:50;;;;;;;3.37;3.28;;;;;;;5.08;100.00;102221.16;4344391;32;20065;-70
2021/12/20 01:22:15;;;;;;;4.20;4.00;;;;;;;5.03;100.00;102221.16;4345725;32;20143;-70
2021/12/20 01:24:40;;;;;;;3.10;3.00;;;;;;;5.04;100.00;102229.87;4340520;32;20076;-70
2021/12/20 01:27:06;;;;;;;4.65;4.45;;;;;;;5.02;100.00;102222.06;4350657;32;20588;-70
2021/12/20 01:29:31;;;;;;;3.37;3.28;;;;;;;5.00;100.00;102229.87;4347569;32;20573;-70
2021/12/20 01:31:57;;;;;;;3.33;3.22;;;;;;;5.00;100.00;102222.06;4351187;32;20089;-69
2021/12/20 01:34:22;;;;;;;3.30;3.20;;;;;;;4.65;100.00;102151.13;4341712;32;20073;-70
2021/12/20 01:36:47;;;;;;;3.20;3.10;;;;;;;5.04;100.00;102222.91;4345946;32;20074;-69
2021/12/20 01:39:13;;;;;;;4.78;4.57;;;;;;;5.02;100.00;102232.47;4346380;32;20074;-70
2021/12/20 01:41:40;;;;;;;3.60;3.40;;;;;;;4.99;100.00;102225.53;4361578;32;20330;-70
2021/12/20 01:44:05;;;;;;;4.65;4.45;;;;;;;5.00;100.00;102223.81;4344835;32;20058;-70
2021/12/20 01:46:31;;;;;;;3.10;3.00;;;;;;;4.01;100.00;102062.12;4346194;32;20145;-70
2021/12/20 01:48:59;;;;;;;3.12;3.03;;;;;;;5.01;100.00;102233.31;4349458;32;20074;-69
2021/12/20 01:54:19;;;;;;;3.20;3.10;;;;;;;4.98;100.00;102220.34;4347116;32;20193;-69
2021/12/20 01:56:45;;;;;;;3.33;3.22;;;;;;;4.96;100.00;102222.09;4347501;32;20086;-69
2021/12/20 01:59:11;;;;;;;4.68;4.47;;;;;;;4.97;100.00;102216.00;4341016;32;20375;-69
2021/12/20 02:01:36;;;;;;;3.20;3.10;;;;;;;4.89;100.00;102204.75;4352055;32;20448;-70
2021/12/20 02:04:05;;;;;;;4.25;4.07;;;;;;;4.94;100.00;102221.22;4343132;32;20793;-71
2021/12/20 02:08:59;;;;;;;3.12;3.03;;;;;;;4.90;100.00;102209.09;4349993;32;20089;-69
2021/12/20 02:11:25;;;;;;;3.08;2.97;;;;;;;4.93;100.00;102215.16;4359690;32;20074;-70
2021/12/20 02:13:50;;;;;;;3.00;2.90;;;;;;;4.90;100.00;102209.97;4350864;32;20092;-70
2021/12/20 02:16:16;;;;;;;4.15;3.95;;;;;;;4.97;100.00;102210.78;4339976;32;20474;-70
2021/12/20 02:18:42;;;;;;;3.00;2.90;;;;;;;4.82;100.00;102208.28;4347953;32;20063;-71
2021/12/20 02:21:07;;;;;;;4.45;4.25;;;;;;;4.94;100.00;102214.28;4374411;32;20330;-69
2021/12/20 02:23:32;;;;;;;3.20;3.10;;;;;;;4.91;100.00;102219.50;4342655;32;20186;-73
2021/12/20 02:26:00;;;;;;;3.97;3.83;;;;;;;4.90;100.00;102222.12;4348093;32;20097;-74
2021/12/20 02:28:25;;;;;;;3.10;3.00;;;;;;;4.84;100.00;102206.53;4351536;32;20644;-72
2021/12/20 02:36:56;;;;;;;3.10;3.00;;;;;;;4.90;100.00;102219.50;4331420;32;20075;-73
2021/12/20 02:38:55;;;;;;;3.10;3.00;;;;;;;4.90;100.00;102217.78;4347554;32;20061;-75
2021/12/20 02:41:29;;;;;;;3.20;3.10;;;;;;;4.85;100.00;102208.25;4358232;32;20140;-73
2021/12/20 02:43:55;;;;;;;3.15;3.05;;;;;;;4.88;100.00;102214.31;4361022;32;20599;-69
2021/12/20 02:48:56;;;;;;;3.10;3.00;;;;;;;4.82;100.00;102196.13;4371460;32;20524;-70
2021/12/20 02:51:24;;;;;;;3.12;3.03;;;;;;;4.88;100.00;102197.84;4349790;32;20193;-70
2021/12/20 02:53:50;;;;;;;3.17;3.08;;;;;;;4.62;100.00;102159.81;4360612;32;20078;-70
2021/12/20 02:56:15;;;;;;;4.28;4.07;;;;;;;4.92;100.00;102210.81;4343369;32;20470;-71
2021/12/20 02:58:41;;;;;;;3.20;3.10;;;;;;;4.87;100.00;102206.50;4363524;32;20081;-71
2021/12/20 03:01:06;;;;;;;4.45;4.25;;;;;;;4.88;100.00;102206.50;4334978;32;20062;-71
2021/12/20 03:03:31;;;;;;;3.10;3.00;;;;;;;4.87;100.00;102211.72;4336803;32;20062;-70
2021/12/20 03:05:57;;;;;;;3.37;3.28;;;;;;;3.48;100.00;102000.81;4347572;32;20541;-70
2021/12/20 03:08:22;;;;;;;4.97;4.68;;;;;;;4.84;100.00;102209.13;4343691;32;20364;-70
2021/12/20 03:10:48;;;;;;;3.65;3.45;;;;;;;4.83;100.00;102213.47;4347313;32;20066;-70
2021/12/20 03:13:14;;;;;;;4.57;4.37;;;;;;;4.83;100.00;102210.00;4345691;32;20108;-70
2021/12/20 03:15:39;;;;;;;3.05;2.95;;;;;;;4.80;100.00;102213.47;4344964;32;20101;-69
2021/12/20 03:18:04;;;;;;;4.78;4.57;;;;;;;4.82;100.00;102209.13;4342400;32;20097;-69
2021/12/20 03:20:30;;;;;;;3.17;3.08;;;;;;;4.83;100.00;102207.38;4352411;32;20145;-70
2021/12/20 03:22:57;;;;;;;3.20;3.10;;;;;;;4.81;100.00;102204.78;4338913;32;20145;-69
2021/12/20 03:25:22;;;;;;;3.10;3.00;;;;;;;4.84;100.00;102209.13;4345869;32;20677;-70
2021/12/20 03:27:47;;;;;;;3.22;3.10;;;;;;;4.71;100.00;102196.19;4356803;32;20067;-70
2021/12/20 03:30:13;;;;;;;4.78;4.57;;;;;;;4.82;100.00;102211.72;4343324;32;20074;-70
2021/12/20 03:32:38;;;;;;;3.10;3.00;;;;;;;4.81;100.00;102220.41;4347169;32;20185;-70
2021/12/20 03:35:05;;;;;;;4.53;4.32;;;;;;;4.81;100.00;102217.78;4347527;32;20086;-70
2021/12/20 03:37:30;;;;;;;3.30;3.20;;;;;;;4.78;100.00;102218.69;4347180;32;20091;-70
2021/12/20 03:39:56;;;;;;;3.20;3.10;;;;;;;4.82;100.00;102216.09;4347020;32;20098;-69
2021/12/20 03:42:22;;;;;;;3.67;3.50;;;;;;;4.77;100.00;102213.47;4344031;32;20694;-70
2021/12/20 03:44:47;;;;;;;3.30;3.20;;;;;;;4.41;100.00;102152.97;4350284;32;20084;-70
2021/12/20 03:47:13;;;;;;;4.55;4.35;;;;;;;4.78;100.00;102213.47;4344910;32;20070;-69
2021/12/20 03:49:40;;;;;;;3.20;3.10;;;;;;;4.59;100.00;102184.09;4351088;32;20089;-70
2021/12/20 03:52:07;;;;;;;4.37;4.18;;;;;;;4.77;100.00;102216.97;4330624;32;20663;-70
2021/12/20 03:54:32;;;;;;;3.00;2.90;;;;;;;4.67;100.00;102190.97;4349312;32;20235;-70
2021/12/20 03:56:58;;;;;;;3.40;3.30;;;;;;;4.69;100.00;102202.22;4346367;32;20466;-70
2021/12/20 03:59:23;;;;;;;3.10;3.00;;;;;;;4.79;100.00;102220.41;4349058;32;20671;-69
2021/12/20 04:01:50;;;;;;;3.28;3.17;;;;;;;4.78;100.00;102213.47;4336777;32;20081;-69
2021/12/20 04:04:15;;;;;;;3.60;3.50;;;;;;;4.78;100.00;102218.69;4335700;32;20080;-69
2021/12/20 04:06:41;;;;;;;3.22;3.12;;;;;;;4.63;100.00;102184.94;4338606;32;20217;-69
2021/12/20 04:09:06;;;;;;;4.55;4.35;;;;;;;4.79;100.00;102210.03;4345599;32;20085;-70
2021/12/20 04:11:32;;;;;;;3.10;3.00;;;;;;;4.78;100.00;102215.22;4343888;32;20914;-69
2021/12/20 04:13:58;;;;;;;3.45;3.35;;;;;;;4.81;100.00;102215.19;4346351;32;20077;-69
2021/12/20 04:16:23;;;;;;;3.20;3.10;;;;;;;4.49;100.00;102152.91;4343459;32;20494;-70
2021/12/20 04:18:48;;;;;;;3.30;3.20;;;;;;;3.94;100.00;102066.47;4347804;32;20090;-71
2021/12/20 04:21:14;;;;;;;4.37;4.18;;;;;;;3.90;100.00;102064.75;4356603;32;20093;-72
2021/12/20 04:23:39;;;;;;;3.20;3.10;;;;;;;4.76;100.00;102217.81;4336245;32;20066;-70
2021/12/20 04:26:05;;;;;;;4.90;4.70;;;;;;;4.35;100.00;102155.53;4368647;32;20070;-70
2021/12/20 04:28:31;;;;;;;3.33;3.22;;;;;;;4.74;100.00;102211.75;4347051;32;20169;-69
2021/12/20 04:30:56;;;;;;;3.25;3.15;;;;;;;4.44;100.00;102170.28;4333846;32;20074;-68
2021/12/20 04:33:22;;;;;;;3.33;3.22;;;;;;;4.72;100.00;102220.44;4349088;32;20098;-71
2021/12/20 04:35:47;;;;;;;3.30;3.20;;;;;;;4.71;100.00;102213.50;4345728;32;20089;-70
2021/12/20 04:38:13;;;;;;;5.35;5.15;;;;;;;4.43;100.00;102174.62;4346755;32;20098;-68
2021/12/20 04:40:38;;;;;;;3.80;3.60;;;;;;;4.67;100.00;102220.47;4348493;32;20659;-69
2021/12/20 04:43:04;;;;;;;4.32;4.12;;;;;;;4.51;100.00;102195.34;4341998;32;20585;-70
2021/12/20 04:45:29;;;;;;;3.10;3.00;;;;;;;4.57;100.00;102213.53;4364219;32;20066;-70
2021/12/20 04:47:57;;;;;;;3.10;3.00;;;;;;;4.54;100.00;102200.56;4344859;32;20120;-69
2021/12/20 04:50:23;;;;;;;3.03;2.92;;;;;;;4.65;100.00;102217.00;4350935;32;20097;-70
2021/12/20 04:52:49;;;;;;;3.22;3.12;;;;;;;4.64;100.00;102220.47;4336877;32;20070;-70
2021/12/20 04:55:14;;;;;;;4.47;4.28;;;;;;;4.64;100.00;102214.41;4348361;32;20811;-68
2021/12/20 04:57:40;;;;;;;3.40;3.30;;;;;;;4.68;97.51;102211.78;4344934;32;20074;-70
2021/12/20 05:00:08;;;;;;;4.43;4.22;;;;;;;4.70;94.14;102212.63;4359932;32;20098;-71
2021/12/20 05:02:34;;;;;;;3.10;3.00;;;;;;;4.76;88.84;102209.16;4358653;32;20208;-69
2021/12/20 05:04:59;;;;;;;3.80;3.65;;;;;;;4.76;87.06;102217.81;4360260;32;20156;-71
2021/12/20 05:07:26;;;;;;;3.08;2.97;;;;;;;4.73;87.54;102219.56;4341376;32;20596;-70
2021/12/20 05:09:57;;;;;;;3.20;3.10;;;;;;;4.65;87.58;102211.81;4348960;32;20151;-70
2021/12/20 05:12:22;;;;;;;3.30;3.20;;;;;;;4.70;87.54;102216.97;4346862;32;20109;-69
2021/12/20 05:14:48;;;;;;;3.47;3.37;;;;;;;4.72;85.10;102218.69;4345952;32;20071;-70
2021/12/20 05:17:13;;;;;;;4.43;4.22;;;;;;;4.72;85.79;102218.69;4348226;32;20367;-71
2021/12/20 05:19:39;;;;;;;3.40;3.30;;;;;;;4.55;87.46;102197.06;4347000;32;20078;-73
2021/12/20 05:22:05;;;;;;;5.15;4.95;;;;;;;4.66;88.44;102212.66;4342169;32;20387;-70
2021/12/20 05:24:30;;;;;;;3.30;3.20;;;;;;;4.62;88.78;102206.59;4347546;32;20115;-69
2021/12/20 05:26:55;;;;;;;3.33;3.22;;;;;;;4.61;89.21;102207.50;4345072;32;20077;-69
2021/12/20 05:29:22;;;;;;;3.22;3.12;;;;;;;4.55;90.51;102216.16;4343732;32;20067;-70
2021/12/20 05:31:47;;;;;;;3.10;3.00;;;;;;;4.55;90.24;102225.69;4331085;32;20589;-70
2021/12/20 05:34:13;;;;;;;4.93;4.72;;;;;;;4.53;90.84;102212.72;4344836;32;20089;-69
2021/12/20 05:36:38;;;;;;;3.20;3.10;;;;;;;4.52;91.33;102215.31;4352038;32;20579;-69
2021/12/20 05:39:04;;;;;;;4.47;4.28;;;;;;;4.45;91.91;102209.25;4342392;32;20088;-70
2021/12/20 05:41:29;;;;;;;3.20;3.10;;;;;;;4.51;92.52;102223.94;4359602;32;20066;-69
2021/12/20 05:43:54;;;;;;;3.20;3.10;;;;;;;4.52;93.33;102223.09;4362991;32;20443;-69
2021/12/20 05:46:20;;;;;;;3.40;3.30;;;;;;;4.51;93.66;102208.34;4349117;32;20094;-70
2021/12/20 05:48:45;;;;;;;3.03;2.92;;;;;;;4.50;93.83;102219.63;4345423;32;20267;-70
2021/12/20 05:51:10;;;;;;;4.65;4.45;;;;;;;4.27;94.77;102183.28;4341663;32;20078;-73
2021/12/20 05:53:36;;;;;;;3.30;3.20;;;;;;;4.48;95.48;102223.97;4343541;32;20082;-71
2021/12/20 05:56:01;;;;;;;4.50;4.30;;;;;;;4.48;95.19;102224.84;4346336;32;20088;-70
2021/12/20 05:58:27;;;;;;;3.40;3.30;;;;;;;4.48;96.23;102229.19;4350446;32;20588;-70
2021/12/20 06:00:53;;;;;;;3.05;2.95;;;;;;;4.47;96.67;102227.44;4350130;32;20089;-70
2021/12/20 06:03:18;;;;;;;3.10;3.00;;;;;;;4.46;96.62;102236.13;4347542;32;20074;-70
2021/12/20 06:05:44;;;;;;;3.40;3.30;;;;;;;4.45;97.15;102234.38;4352098;32;20733;-70
2021/12/20 06:08:09;;;;;;;4.45;4.25;;;;;;;4.45;97.41;102231.78;4351374;32;20061;-70
2021/12/20 06:10:35;;;;;;;3.20;3.10;;;;;;;4.46;97.50;102238.72;4361220;32;20670;-70
2021/12/20 06:13:01;;;;;;;4.25;4.05;;;;;;;4.44;97.95;102241.31;4348277;32;20070;-70
2021/12/20 06:15:27;;;;;;;3.00;2.90;;;;;;;4.45;98.11;102236.97;4362699;32;20208;-70
2021/12/20 06:17:52;;;;;;;3.30;3.20;;;;;;;4.46;98.75;102242.16;4352474;32;20065;-68
2021/12/20 06:20:17;;;;;;;4.10;3.75;;;;;;;3.93;98.93;102163.44;4346705;32;20086;-70
2021/12/20 06:22:43;;;;;;;3.10;3.00;;;;;;;4.45;98.96;102245.66;4350412;32;20066;-69
2021/12/20 06:25:08;;;;;;;4.43;4.22;;;;;;;4.34;98.99;102232.66;4340778;32;20178;-69
2021/12/20 06:27:34;;;;;;;3.20;3.10;;;;;;;4.42;99.66;102245.66;4349493;32;20571;-69
2021/12/20 06:30:00;;;;;;;4.20;4.03;;;;;;;4.27;99.34;102225.75;4350462;32;20096;-68
2021/12/20 06:32:25;;;;;;;3.75;3.42;;;;;;;4.35;99.84;102244.81;4352113;32;20520;-69
2021/12/20 06:34:51;;;;;;;3.20;3.10;;;;;;;4.40;100.00;102245.66;4350508;32;20078;-70
2021/12/20 06:37:16;;;;;;;3.12;3.03;;;;;;;4.42;100.00;102245.66;4349380;32;20239;-70
2021/12/20 06:39:42;;;;;;;3.20;3.10;;;;;;;4.46;98.91;102254.31;4347970;32;20830;-70
2021/12/20 06:42:07;;;;;;;4.70;4.50;;;;;;;4.48;98.46;102257.78;4348503;32;20085;-68
2021/12/20 06:44:32;;;;;;;3.10;3.00;;;;;;;4.47;97.79;102254.31;4351935;32;20647;-69
2021/12/20 06:47:01;;;;;;;4.05;3.85;;;;;;;4.47;97.85;102251.72;4350109;32;20077;-68
2021/12/20 06:49:26;;;;;;;3.30;3.20;;;;;;;4.42;97.67;102245.66;4351322;32;20209;-68
2021/12/20 06:51:55;;;;;;;3.10;3.00;;;;;;;3.43;96.82;102081.25;4348860;32;20639;-69
2021/12/20 06:54:22;;;;;;;3.67;3.58;;;;;;;4.48;96.61;102260.37;4350192;32;20080;-70
2021/12/20 06:56:48;;;;;;;3.20;3.10;;;;;;;4.34;96.22;102237.84;4346088;32;20120;-68
2021/12/20 06:59:13;;;;;;;4.70;4.50;;;;;;;4.50;96.27;102262.09;4342038;32;20129;-69
2021/12/20 07:01:38;;;;;;;3.30;3.20;;;;;;;4.51;96.09;102262.94;4349566;32;20520;-68
2021/12/20 07:04:04;;;;;;;4.57;4.37;;;;;;;4.49;95.84;102267.28;4355266;32;20059;-68
2021/12/20 07:06:29;;;;;;;5.80;3.78;;;;;;;4.00;95.64;102191.12;4358384;32;20077;-69
2021/12/20 07:08:58;;;;;;;3.08;2.97;;;;;;;4.45;95.84;102273.38;4335853;32;20500;-68
2021/12/20 07:11:23;;;;;;;2.97;2.87;;;;;;;4.46;96.21;102275.09;4371588;32;20572;-71
2021/12/20 07:13:49;;;;;;;3.20;3.10;;;;;;;4.46;94.74;102277.72;4348543;32;20070;-69
2021/12/20 07:16:15;;;;;;;4.28;4.07;;;;;;;4.45;95.30;102273.38;4347469;32;20613;-70
2021/12/20 07:18:40;;;;;;;3.30;3.20;;;;;;;4.14;95.35;102221.44;4343264;32;20865;-70
2021/12/20 07:21:05;;;;;;;4.53;4.32;;;;;;;4.11;95.53;102235.28;4362182;32;20058;-71
2021/12/20 07:23:31;;;;;;;3.10;3.00;;;;;;;4.34;95.53;102276.84;4347992;32;20066;-70
2021/12/20 07:25:59;;;;;;;3.30;3.20;;;;;;;4.27;96.14;102279.44;4359888;32;20077;-70
2021/12/20 07:28:24;;;;;;;3.15;3.05;;;;;;;4.16;97.11;102287.25;4345037;32;20094;-70
2021/12/20 07:30:50;;;;;;;3.10;3.00;;;;;;;4.06;96.86;102275.13;4334639;32;20080;-70
2021/12/20 07:33:15;;;;;;;4.45;4.25;;;;;;;3.93;97.94;102293.31;4344522;32;20070;-70
2021/12/20 07:35:42;;;;;;;3.20;3.10;;;;;;;3.80;98.26;102288.94;4361676;32;20637;-70
2021/12/20 07:38:11;;;;;;;4.57;4.37;;;;;;;3.72;99.25;102293.25;4345554;32;20078;-72
2021/12/20 07:40:37;;;;;;;3.10;3.00;;;;;;;3.69;99.99;102296.72;4358293;32;20101;-69
2021/12/20 07:43:02;;;;;;;4.37;4.18;;;;;;;3.70;100.00;102306.25;4343082;32;20074;-69
2021/12/20 07:45:28;;;;;;;3.40;3.30;;;;;;;3.67;100.00;102294.97;4363176;32;20407;-70
2021/12/20 07:47:53;;;;;;;3.10;3.00;;;;;;;3.63;100.00;102303.63;4347246;32;20117;-70
2021/12/20 07:50:19;;;;;;;3.30;3.20;;;;;;;3.57;100.00;102301.91;4347904;32;20403;-70
2021/12/20 07:52:44;;;;;;;3.10;3.00;;;;;;;3.50;100.00;102308.78;4338376;32;20160;-70
2021/12/20 07:55:10;;;;;;;4.70;4.50;;;;;;;3.37;100.00;102292.31;4337703;32;20534;-70
2021/12/20 07:57:37;;;;;;;3.10;3.00;;;;;;;3.45;100.00;102315.69;4343984;32;20063;-70
2021/12/20 08:00:04;;;;;;;4.25;4.05;;;;;;;3.46;100.00;102311.37;4346378;32;20173;-71
2021/12/20 08:02:29;;;;;;;3.00;2.90;;;;;;;3.47;99.75;102306.19;4350501;32;20102;-70
2021/12/20 08:04:55;;;;;;;3.10;3.00;;;;;;;3.45;99.70;102326.09;4339516;32;20603;-70
2021/12/20 08:07:21;;;;;;;2.90;2.80;;;;;;;3.38;99.85;102300.97;4337614;32;20148;-70
2021/12/20 08:09:48;;;;;;;3.10;3.00;;;;;;;3.40;99.51;102307.87;4345645;32;20070;-70
2021/12/20 08:12:13;;;;;;;4.57;4.37;;;;;;;3.36;99.17;102302.69;4344522;32;20109;-70
2021/12/20 08:14:39;;;;;;;2.83;2.72;;;;;;;3.00;99.83;102250.66;4346574;32;20591;-70
2021/12/20 08:17:04;;;;;;;4.32;4.12;;;;;;;3.29;99.83;102314.78;4343048;32;20113;-69
2021/12/20 08:19:30;;;;;;;3.17;3.08;;;;;;;3.19;99.94;102316.47;4349367;32;20140;-70
2021/12/20 08:21:55;;;;;;;3.45;3.35;;;;;;;3.04;100.00;102298.22;4342811;32;20082;-70
2021/12/20 08:24:20;;;;;;;3.00;2.90;;;;;;;3.04;100.00;102313.78;4361996;32;20152;-70
2021/12/20 08:26:47;;;;;;;3.17;3.08;;;;;;;3.00;100.00;102312.03;4343814;32;20138;-69
2021/12/20 08:29:12;;;;;;;4.97;4.68;;;;;;;3.02;100.00;102312.91;4343773;32;20092;-69
2021/12/20 08:31:38;;;;;;;3.00;2.90;;;;;;;3.04;100.00;102310.34;4344912;32;20062;-70
2021/12/20 08:34:04;;;;;;;4.95;4.75;;;;;;;3.05;100.00;102315.53;4341975;32;20104;-69
2021/12/20 08:36:29;;;;;;;3.80;3.60;;;;;;;3.05;100.00;102322.41;4347758;32;20581;-69
2021/12/20 08:38:54;;;;;;;3.15;3.05;;;;;;;3.01;100.00;102324.16;4340131;32;20093;-69
2021/12/20 08:41:20;;;;;;;3.10;3.00;;;;;;;3.00;100.00;102319.81;4352266;32;20210;-69
2021/12/20 08:43:45;;;;;;;2.80;2.70;;;;;;;2.86;100.00;102299.00;4360119;32;20187;-69
2021/12/20 08:46:11;;;;;;;4.62;4.43;;;;;;;3.00;100.00;102322.41;4344152;32;20083;-69
2021/12/20 08:48:36;;;;;;;2.92;2.83;;;;;;;3.05;100.00;102325.91;4347949;32;20450;-70
2021/12/20 08:51:02;;;;;;;3.85;3.70;;;;;;;2.99;100.00;102316.38;4341985;32;20156;-69
2021/12/20 08:53:27;;;;;;;3.10;3.00;;;;;;;3.17;100.00;102331.16;4345972;32;20469;-69
2021/12/20 08:55:53;;;;;;;3.30;3.20;;;;;;;3.20;100.00;102338.06;4345227;32;20200;-69
2021/12/20 08:58:18;;;;;;;3.08;2.97;;;;;;;3.20;100.00;102341.53;4351028;32;20154;-69
2021/12/20 09:00:43;;;;;;;2.87;2.78;;;;;;;3.20;100.00;102338.94;4339203;32;20671;-69
2021/12/20 09:03:09;;;;;;;4.43;4.22;;;;;;;3.23;100.00;102345.00;4351793;32;20081;-70
2021/12/20 09:05:34;;;;;;;2.90;2.80;;;;;;;3.29;100.00;102345.91;4346567;32;20627;-69
2021/12/20 09:08:01;;;;;;;3.25;3.15;;;;;;;3.32;100.00;102339.88;4352163;32;20081;-69
2021/12/20 09:10:27;;;;;;;3.20;3.10;;;;;;;3.35;100.00;102342.47;4358924;32;20208;-69
2021/12/20 09:12:52;;;;;;;2.97;2.87;;;;;;;3.44;100.00;102342.50;4358375;32;20146;-69
2021/12/20 09:15:18;;;;;;;3.62;3.53;;;;;;;3.45;100.00;102362.41;4349283;32;20074;-69
2021/12/20 09:17:48;;;;;;;2.85;2.75;;;;;;;3.53;100.00;102342.56;4357715;32;20330;-69
2021/12/20 09:20:13;;;;;;;4.75;4.55;;;;;;;3.59;100.00;102352.09;4348797;32;20088;-69
2021/12/20 09:22:49;;;;;;;3.30;3.20;;;;;;;3.62;100.00;102354.69;4364679;32;20069;-69
2021/12/20 09:25:15;;;;;;;4.32;4.12;;;;;;;3.69;100.00;102353.84;4344967;32;20120;-69
2021/12/20 09:27:41;;;;;;;3.10;3.00;;;;;;;3.58;100.00;102343.41;4377569;32;20065;-70
2021/12/20 09:30:07;;;;;;;4.75;4.55;;;;;;;3.71;99.90;102353.84;4334215;32;20634;-69
2021/12/20 09:32:32;;;;;;;3.00;2.90;;;;;;;3.73;99.39;102359.94;4364366;32;20449;-69
2021/12/20 09:34:58;;;;;;;3.08;2.97;;;;;;;3.78;98.83;102368.59;4344082;32;20230;-68
2021/12/20 09:37:23;;;;;;;3.00;2.90;;;;;;;3.92;97.42;102363.44;4350845;32;20541;-69
2021/12/20 09:39:53;;;;;;;3.00;2.90;;;;;;;3.85;96.77;102367.75;4349101;32;20747;-69
2021/12/20 09:42:18;;;;;;;3.28;3.17;;;;;;;3.97;96.67;102372.97;4349623;32;21887;-69
2021/12/20 09:44:44;;;;;;;3.08;2.97;;;;;;;3.66;96.43;102314.87;4352767;32;20066;-69
2021/12/20 09:47:09;;;;;;;4.68;4.47;;;;;;;4.03;96.17;102368.63;4359047;32;20058;-70
2021/12/20 09:49:34;;;;;;;2.90;2.80;;;;;;;4.06;95.78;102373.84;4349151;32;20140;-69
2021/12/20 09:52:00;;;;;;;3.58;3.45;;;;;;;4.04;95.75;102366.03;4353081;32;20682;-69
2021/12/20 09:54:26;;;;;;;3.70;3.60;;;;;;;4.13;95.33;102373.88;4352030;32;20454;-70
2021/12/20 09:56:53;;;;;;;3.10;3.00;;;;;;;4.12;94.89;102359.13;4350293;32;20618;-69
2021/12/20 09:59:19;;;;;;;3.67;3.58;;;;;;;4.27;94.08;102367.81;4346897;32;20631;-69
2021/12/20 10:01:45;;;;;;;3.40;3.30;;;;;;;4.37;93.43;102353.94;4352893;32;20085;-70
2021/12/20 10:04:10;;;;;;;4.30;4.10;;;;;;;4.53;92.81;102380.81;4329824;32;20568;-70
2021/12/20 10:06:36;;;;;;;3.40;3.30;;;;;;;4.19;91.87;102292.47;4347569;32;20570;-70
2021/12/20 10:09:10;;;;;;;4.35;4.15;;;;;;;4.68;90.21;102365.22;4350369;32;20552;-70
2021/12/20 10:11:43;;;;;;;3.35;3.25;;;;;;;4.63;88.94;102364.38;4348453;32;20072;-68
2021/12/20 10:14:10;;;;;;;5.00;4.75;;;;;;;4.78;88.42;102364.31;4280382;32;20107;-69
2021/12/20 10:16:37;;;;;;;3.10;3.00;;;;;;;4.90;88.16;102368.66;4344116;32;20442;-70
2021/12/20 10:19:04;;;;;;;4.85;4.65;;;;;;;4.92;87.57;102372.13;4348455;32;20092;-70
2021/12/20 10:21:36;;;;;;;3.08;2.97;;;;;;;5.06;86.65;102368.63;4349657;32;20086;-71
2021/12/20 10:24:02;;;;;;;3.83;3.70;;;;;;;5.04;86.08;102371.22;4362733;32;20160;-70
2021/12/20 10:26:27;;;;;;;3.00;2.90;;;;;;;5.15;84.70;102366.88;4347187;32;20712;-70
2021/12/20 10:28:53;;;;;;;3.05;2.95;;;;;;;4.66;84.67;102265.53;4366639;32;20065;-69
2021/12/20 10:31:23;;;;;;;3.15;3.05;;;;;;;5.35;83.74;102369.41;4346929;32;20642;-69
2021/12/20 10:33:52;;;;;;;3.87;3.58;;;;;;;5.52;84.26;102368.47;4353086;32;20068;-69
2021/12/20 10:36:18;;;;;;;3.35;3.25;;;;;;;5.51;83.85;102358.91;4360116;32;20074;-70
2021/12/20 10:38:44;;;;;;;3.20;3.10;;;;;;;5.60;83.37;102358.87;4349420;32;20108;-69
2021/12/20 10:41:24;;;;;;;4.55;4.35;;;;;;;5.51;83.96;102367.62;4347902;32;20066;-69
2021/12/20 10:43:57;;;;;;;3.20;3.10;;;;;;;5.51;83.67;102362.41;4358807;32;20092;-69
2021/12/20 10:46:29;;;;;;;3.00;2.90;;;;;;;5.51;83.70;102362.41;4338892;32;20276;-69
2021/12/20 10:48:59;;;;;;;3.22;3.12;;;;;;;4.92;84.00;102260.25;4363653;32;20149;-70
2021/12/20 10:51:26;;;;;;;3.12;3.03;;;;;;;5.39;83.71;102349.41;4345067;32;20073;-69
2021/12/20 10:53:59;;;;;;;3.17;3.08;;;;;;;5.60;82.99;102364.94;4355941;32;20073;-69
2021/12/20 10:56:24;;;;;;;3.30;3.20;;;;;;;5.65;82.06;102357.09;4349478;32;20115;-69
2021/12/20 10:58:50;;;;;;;3.25;3.15;;;;;;;5.64;81.20;102352.78;4360075;32;20085;-69
2021/12/20 11:04:13;;;;;;;;;;;;;;;5.65;79.22;102349.28;4371482;32;20173;-70
2021/12/20 11:09:20;;;;;;;3.08;2.97;;;;;;;5.69;78.80;102355.37;4351945;32;20192;-69
2021/12/20 11:11:59;;;;;;;3.70;3.40;;;;;;;5.70;77.43;102344.09;4355586;32;20084;-70
2021/12/20 11:14:45;;;;;;;3.30;3.20;;;;;;;5.93;77.78;102341.34;4349763;32;20199;-69
2021/12/20 11:17:13;;;;;;;4.28;4.07;;;;;;;5.97;77.06;102346.56;4348723;32;20074;-70
2021/12/20 11:19:39;;;;;;;3.20;3.10;;;;;;;6.15;75.94;102349.91;4348263;32;20100;-70
2021/12/20 11:22:09;;;;;;;4.95;4.75;;;;;;;5.80;74.57;102353.56;4347120;32;20494;-69
2021/12/20 11:25:05;;;;;;;3.20;3.10;;;;;;;5.71;75.66;102343.19;4356041;32;20086;-69
2021/12/20 11:27:41;;;;;;;3.30;3.20;;;;;;;5.63;74.25;102344.97;4339517;32;20136;-70
2021/12/20 11:30:08;;;;;;;4.68;4.47;;;;;;;5.53;75.36;102342.44;4342067;32;20081;-69
2021/12/20 11:32:33;;;;;;;3.20;3.10;;;;;;;5.53;75.40;102346.75;4363023;32;20101;-69
2021/12/20 11:34:58;;;;;;;3.62;3.47;;;;;;;5.57;75.95;102345.88;4345742;32;20568;-68
2021/12/20 11:37:26;;;;;;;3.40;3.30;;;;;;;5.72;76.95;102340.59;4350669;32;20078;-70
2021/12/20 11:39:52;;;;;;;3.45;3.35;;;;;;;5.77;75.71;102341.44;4347493;32;20104;-69
2021/12/20 11:42:17;;;;;;;3.40;3.30;;;;;;;5.87;75.50;102351.78;4350725;32;20591;-70
2021/12/20 11:44:44;;;;;;;3.20;3.10;;;;;;;5.94;74.42;102343.94;4350836;32;20184;-69
2021/12/20 11:47:31;;;;;;;4.60;4.40;;;;;;;6.08;73.76;102350.84;4357622;32;20066;-70